Findlay Airport
KFDY : rendu visible

Aérodrome :











RETROUVEZ-NOUS SUR...

 
LOGIN :

S'inscrire | Disclaimer

   EN    FR    IT 

 









Légende :    VFR   VFR Marginal   IFR   IFR Intensif   IFR Très Intensif
Visi : 
Plafond : 
>= 8 km
>= 3000ft
5 à 8 km
1000 à 3000 ft
1500m à 5 km
500 à 1000 ft
800 à 1500m
200 à 500 ft
< 800m
< 200 ft
Symboles :   Orages  Brouillard  Fortes neiges  Fortes précipitations  Vent > 20 kt






- Altitude de l'aérodrome : 813 ft


KFDY - Findlay

DERNIER METAR :
  • 200221Z AUTO 28012KT 6SM -SN FEW013 SCT024 OVC037 M08/M11 A3036 RMK AO2 P0000 T10831111

METARs EXPIRÉS :
  • 200153Z AUTO 27012KT 4SM -SN OVC021 M08/M11 A3036 RMK AO2 SLP292 P0000 T10831111
  • 200053Z AUTO 27012KT 4SM -SN OVC023 M09/M12 A3034 RMK AO2 SLP285 P0000 T10891117
  • 192353Z AUTO 26014KT 4SM -SN OVC027 M09/M12 A3031 RMK AO2 SLP274 P0000 60000 T10891122 11089 21094 53029

TAF KFDY
Valide du 20 à 00h jusqu'au 21 à 00h UTC


192338Z 2000/2024 29013KT 5SM -SHSN OVC025
FM200300 32009KT P6SM BKN025
FM200400 32006KT P6SM SCT025
FM201200 33006KT P6SM SCT250



MET'MAP, la Météo Aéronautique d'un coup d'oeil ! - Copyright ORBIFLY Décembre 2007 - Disclaimer

ORBIFLY MET'MAP TEAM :

Programmation & Développement : Alexandra Zaïnal
Sur une idée originale de : Baudouin d'Aumeries
Assistance à la programmation : Marc-Olivier Méhu
Soutien technique & logistique : Manuel Goepfert

Contact : metmap@orbifly.com




SOURCES & CREDITS :

   NOAA       Earth
Advisory